createdAt,value
2019-04-30T00:00:12.299Z,9.50
2019-04-30T00:02:40.558Z,9.50
2019-04-30T00:05:10.091Z,9.40
2019-04-30T00:07:35.755Z,9.20
2019-04-30T00:10:06.614Z,9.20
2019-04-30T00:12:37.974Z,9.30
2019-04-30T00:15:03.064Z,9.20
2019-04-30T00:17:29.541Z,9.20
2019-04-30T00:19:59.835Z,9.30
2019-04-30T00:22:33.255Z,9.30
2019-04-30T00:24:52.329Z,9.40
2019-04-30T00:27:20.996Z,9.30
2019-04-30T00:29:47.235Z,9.40
2019-04-30T00:32:13.429Z,9.20
2019-04-30T00:34:39.770Z,9.10
2019-04-30T00:37:07.384Z,9.10
2019-04-30T00:39:35.560Z,9.20
2019-04-30T00:42:02.127Z,9.30
2019-04-30T00:44:28.564Z,9.10
2019-04-30T00:46:55.888Z,9.20
2019-04-30T00:49:23.150Z,9.10
2019-04-30T00:51:54.682Z,9.20
2019-04-30T00:54:22.490Z,9.20
2019-04-30T00:56:47.235Z,9.30
2019-04-30T00:59:15.103Z,9.30
2019-04-30T01:02:00.401Z,9.30
2019-04-30T01:04:45.018Z,9.20
2019-04-30T01:07:11.535Z,9.20
2019-04-30T01:09:39.559Z,9.10
2019-04-30T01:12:06.349Z,9.20
2019-04-30T01:14:33.030Z,9.20
2019-04-30T01:17:03.799Z,9.10
2019-04-30T01:19:30.602Z,9.00
2019-04-30T01:21:56.428Z,9.00
2019-04-30T01:24:23.367Z,8.80
2019-04-30T01:26:51.453Z,8.80
2019-04-30T01:29:19.243Z,8.90
2019-04-30T01:31:45.657Z,8.90
2019-04-30T01:34:14.010Z,8.80
2019-04-30T01:36:43.537Z,8.70
2019-04-30T01:39:09.498Z,8.70
2019-04-30T01:41:35.928Z,8.80
2019-04-30T01:44:03.710Z,8.80
2019-04-30T01:46:30.810Z,8.90
2019-04-30T01:48:58.818Z,8.90
2019-04-30T01:51:25.303Z,9.00
2019-04-30T01:53:51.916Z,8.90
2019-04-30T01:56:25.830Z,8.80
2019-04-30T01:58:53.961Z,8.80
2019-04-30T02:01:30.967Z,8.80
2019-04-30T02:03:58.506Z,8.70
2019-04-30T02:06:25.227Z,8.70
2019-04-30T02:08:51.852Z,8.70
2019-04-30T02:11:19.090Z,8.60
2019-04-30T02:13:46.932Z,8.70
2019-04-30T02:16:13.424Z,8.60
2019-04-30T02:18:40.033Z,8.70
2019-04-30T02:21:06.254Z,8.70
2019-04-30T02:23:32.924Z,8.80
2019-04-30T02:25:59.622Z,8.80
2019-04-30T02:28:28.841Z,8.70
2019-04-30T02:30:54.854Z,8.70
2019-04-30T02:33:21.489Z,8.70
2019-04-30T02:35:55.697Z,8.90
2019-04-30T02:38:30.271Z,8.70
2019-04-30T02:40:59.521Z,8.60
2019-04-30T02:43:30.081Z,8.80
2019-04-30T02:45:59.709Z,8.80
2019-04-30T02:48:29.509Z,8.70
2019-04-30T02:51:00.208Z,8.60
2019-04-30T02:53:50.832Z,8.50
2019-04-30T02:56:20.286Z,8.60
2019-04-30T02:58:46.998Z,8.70
2019-04-30T03:01:13.618Z,8.70
2019-04-30T03:03:42.707Z,8.70
2019-04-30T03:06:11.394Z,8.80
2019-04-30T03:08:36.593Z,8.90
2019-04-30T03:11:03.019Z,9.00
2019-04-30T03:13:29.927Z,9.00
2019-04-30T03:15:59.144Z,9.10
2019-04-30T03:18:26.566Z,9.10
2019-04-30T03:20:55.068Z,9.20
2019-04-30T03:23:21.468Z,9.20
2019-04-30T03:25:50.103Z,9.50
2019-04-30T03:28:16.376Z,9.60
2019-04-30T03:30:43.087Z,9.60
2019-04-30T03:33:12.664Z,9.60
2019-04-30T03:35:46.617Z,9.60
2019-04-30T03:38:06.223Z,9.60
2019-04-30T03:40:32.818Z,9.70
2019-04-30T03:42:59.748Z,9.60
2019-04-30T03:45:30.037Z,9.60
2019-04-30T03:47:55.636Z,9.60
2019-04-30T03:50:22.235Z,9.70
2019-04-30T03:52:50.337Z,9.80
2019-04-30T03:55:20.591Z,9.80
2019-04-30T03:57:51.677Z,9.50
2019-04-30T04:00:20.194Z,9.60
2019-04-30T04:02:49.863Z,9.70
2019-04-30T04:05:29.927Z,9.70
2019-04-30T04:07:59.826Z,9.80
2019-04-30T04:10:29.771Z,9.70
2019-04-30T04:12:56.395Z,9.80
2019-04-30T04:15:23.037Z,9.90
2019-04-30T04:17:50.368Z,9.80
2019-04-30T04:20:20.052Z,9.90
2019-04-30T04:22:45.912Z,10.10
2019-04-30T04:25:13.231Z,10.30
2019-04-30T04:27:39.911Z,10.30
2019-04-30T04:30:06.458Z,10.20
2019-04-30T04:32:32.784Z,10.30
2019-04-30T04:35:00.217Z,10.00
2019-04-30T04:37:29.304Z,9.90
2019-04-30T04:39:55.587Z,9.90
2019-04-30T04:42:22.580Z,10.00
2019-04-30T04:44:50.310Z,10.10
2019-04-30T04:47:19.470Z,10.20
2019-04-30T04:49:45.261Z,10.20
2019-04-30T04:52:11.681Z,10.30
2019-04-30T04:54:39.963Z,10.20
2019-04-30T04:57:17.044Z,10.20
2019-04-30T04:59:34.635Z,10.30
2019-04-30T05:02:03.124Z,10.50
2019-04-30T05:04:29.916Z,10.50
2019-04-30T05:06:56.372Z,10.40
2019-04-30T05:09:22.624Z,10.50
2019-04-30T05:11:48.895Z,10.40
2019-04-30T05:14:15.083Z,10.40
2019-04-30T05:16:41.311Z,10.50
2019-04-30T05:19:08.920Z,10.40
2019-04-30T05:21:42.760Z,10.40
2019-04-30T05:24:03.865Z,10.30
2019-04-30T05:26:30.096Z,10.40
2019-04-30T05:28:56.528Z,10.50
2019-04-30T05:31:22.803Z,10.80
2019-04-30T05:33:49.385Z,10.90
2019-04-30T05:36:15.795Z,10.80
2019-04-30T05:38:41.940Z,10.70
2019-04-30T05:41:09.323Z,10.70
2019-04-30T05:43:35.995Z,10.60
2019-04-30T05:46:02.178Z,10.70
2019-04-30T05:48:28.762Z,10.70
2019-04-30T05:50:56.254Z,10.70
2019-04-30T05:53:22.921Z,10.70
2019-04-30T05:55:49.589Z,10.60
2019-04-30T05:58:16.597Z,10.60
2019-04-30T06:00:42.861Z,10.60
2019-04-30T06:03:09.609Z,10.50
2019-04-30T06:05:36.353Z,10.50
2019-04-30T06:08:02.784Z,10.50
2019-04-30T06:10:49.270Z,10.50
2019-04-30T06:13:32.859Z,10.60
2019-04-30T06:16:01.305Z,10.60
2019-04-30T06:18:28.680Z,10.60
2019-04-30T06:20:55.461Z,10.50
2019-04-30T06:23:23.026Z,10.50
2019-04-30T06:25:57.558Z,10.60
2019-04-30T06:28:21.428Z,10.60
2019-04-30T06:30:49.285Z,10.70
2019-04-30T06:33:15.997Z,10.60
2019-04-30T06:35:42.513Z,10.60
2019-04-30T06:38:08.880Z,10.70
2019-04-30T06:40:35.486Z,10.90
2019-04-30T06:43:01.865Z,10.90
2019-04-30T06:45:30.161Z,10.80
2019-04-30T06:47:59.182Z,10.80
2019-04-30T06:50:25.413Z,10.70
2019-04-30T06:52:56.783Z,10.90
2019-04-30T06:55:19.712Z,10.90
2019-04-30T06:57:46.047Z,10.90
2019-04-30T07:00:13.997Z,11.00
2019-04-30T07:02:40.342Z,11.10
2019-04-30T07:05:09.937Z,11.10
2019-04-30T07:07:39.691Z,11.20
2019-04-30T07:10:10.170Z,11.30
2019-04-30T07:12:38.834Z,11.30
2019-04-30T07:15:05.564Z,11.30
2019-04-30T07:17:31.789Z,11.30
2019-04-30T07:19:59.728Z,11.40
2019-04-30T07:22:37.634Z,11.50
2019-04-30T07:24:54.172Z,11.60
2019-04-30T07:27:24.008Z,11.60
2019-04-30T07:29:49.488Z,11.40
2019-04-30T07:32:16.080Z,11.40
2019-04-30T07:34:42.336Z,11.50
2019-04-30T07:37:16.418Z,11.70
2019-04-30T07:39:36.604Z,11.60
2019-04-30T07:42:02.955Z,11.60
2019-04-30T07:44:36.226Z,11.60
2019-04-30T07:46:59.380Z,11.60
2019-04-30T07:49:25.293Z,11.60
2019-04-30T07:51:52.613Z,11.70
2019-04-30T07:54:19.511Z,11.90
2019-04-30T07:56:45.773Z,12.00
2019-04-30T07:59:11.987Z,12.00
2019-04-30T08:01:59.998Z,12.00
2019-04-30T08:04:08.804Z,11.90
2019-04-30T08:06:35.666Z,12.00
2019-04-30T08:09:06.450Z,11.90
2019-04-30T08:11:34.415Z,11.90
2019-04-30T08:14:01.461Z,11.90
2019-04-30T08:16:28.739Z,11.90
2019-04-30T08:18:55.081Z,11.90
2019-04-30T08:21:21.509Z,11.90
2019-04-30T08:23:48.929Z,12.00
2019-04-30T08:26:15.899Z,12.10
2019-04-30T08:28:42.225Z,12.20
2019-04-30T08:31:08.956Z,12.20
2019-04-30T08:33:35.510Z,12.20
2019-04-30T08:36:01.820Z,12.30
2019-04-30T08:38:29.923Z,12.30
2019-04-30T08:40:58.807Z,12.00
2019-04-30T08:43:24.125Z,11.90
2019-04-30T08:45:50.394Z,11.90
2019-04-30T08:48:18.729Z,11.90
2019-04-30T08:50:44.846Z,11.70
2019-04-30T08:53:11.842Z,11.80
2019-04-30T08:55:39.109Z,11.80
2019-04-30T08:58:09.811Z,12.00
2019-04-30T09:00:33.740Z,12.00
2019-04-30T09:02:59.993Z,12.00
2019-04-30T09:05:30.455Z,12.00
2019-04-30T09:07:56.192Z,11.90
2019-04-30T09:10:22.418Z,11.80
2019-04-30T09:12:49.556Z,12.00
2019-04-30T09:15:18.722Z,12.00
2019-04-30T09:17:58.144Z,12.00
2019-04-30T09:20:13.061Z,12.00
2019-04-30T09:22:39.409Z,12.10
2019-04-30T09:25:05.757Z,12.40
2019-04-30T09:27:31.994Z,12.40
2019-04-30T09:29:58.794Z,12.40
2019-04-30T09:32:25.470Z,12.60
2019-04-30T09:34:51.724Z,12.40
2019-04-30T09:37:18.687Z,12.40
2019-04-30T09:39:47.006Z,12.50
2019-04-30T09:42:13.220Z,12.50
2019-04-30T09:44:39.608Z,12.50
2019-04-30T09:47:05.830Z,12.50
2019-04-30T09:49:32.053Z,12.60
2019-04-30T09:51:59.514Z,13.00
2019-04-30T09:54:28.569Z,13.20
2019-04-30T09:56:54.473Z,13.10
2019-04-30T09:59:21.013Z,13.10
2019-04-30T10:01:47.762Z,15.20
2019-04-30T10:04:14.660Z,17.10
2019-04-30T10:06:41.856Z,17.40
2019-04-30T10:09:10.864Z,17.30
2019-04-30T10:11:42.258Z,16.80
2019-04-30T10:14:08.494Z,17.00
2019-04-30T10:16:42.481Z,17.60
2019-04-30T10:19:10.245Z,17.70
2019-04-30T10:21:38.748Z,16.20
2019-04-30T10:24:13.110Z,15.90
2019-04-30T10:26:34.264Z,15.30
2019-04-30T10:29:01.243Z,15.20
2019-04-30T10:31:29.316Z,16.20
2019-04-30T10:33:55.608Z,18.30
2019-04-30T10:36:21.832Z,18.00
2019-04-30T10:38:49.391Z,17.40
2019-04-30T10:41:16.038Z,16.80
2019-04-30T10:43:42.356Z,16.50
2019-04-30T10:46:09.677Z,16.10
2019-04-30T10:48:36.236Z,16.20
2019-04-30T10:51:02.588Z,16.40
2019-04-30T10:53:28.937Z,16.40
2019-04-30T10:55:55.420Z,17.10
2019-04-30T10:58:21.646Z,17.60
2019-04-30T11:00:49.869Z,17.10
2019-04-30T11:03:20.782Z,16.50
2019-04-30T11:05:44.268Z,16.00
2019-04-30T11:08:10.733Z,16.60
2019-04-30T11:10:37.392Z,19.30
2019-04-30T11:13:03.725Z,18.80
2019-04-30T11:15:30.130Z,20.20
2019-04-30T11:17:57.024Z,19.80
2019-04-30T11:20:23.639Z,18.80
2019-04-30T11:22:50.563Z,18.30
2019-04-30T11:25:17.287Z,17.60
2019-04-30T11:27:44.827Z,17.10
2019-04-30T11:30:23.284Z,18.20
2019-04-30T11:32:41.480Z,19.80
2019-04-30T11:35:08.761Z,20.40
2019-04-30T11:37:34.980Z,22.30
2019-04-30T11:40:01.473Z,21.00
2019-04-30T11:42:28.902Z,20.30
2019-04-30T11:44:55.156Z,20.10
2019-04-30T11:47:23.740Z,20.90
2019-04-30T11:49:50.291Z,22.30
2019-04-30T11:52:16.818Z,23.10
2019-04-30T11:54:51.543Z,22.80
2019-04-30T11:57:11.818Z,22.70
2019-04-30T11:59:39.546Z,24.00
2019-04-30T12:02:08.002Z,22.90
2019-04-30T12:04:34.229Z,19.90
2019-04-30T12:07:02.473Z,18.40
2019-04-30T12:09:48.485Z,17.80
2019-04-30T12:12:14.821Z,17.70
2019-04-30T12:14:41.044Z,17.70
2019-04-30T12:17:07.411Z,18.00
2019-04-30T12:19:33.630Z,18.60
2019-04-30T12:21:59.858Z,19.20
2019-04-30T12:24:26.348Z,21.00
2019-04-30T12:26:52.572Z,21.80
2019-04-30T12:29:19.163Z,22.20
2019-04-30T12:31:45.848Z,21.90
2019-04-30T12:34:12.113Z,20.50
2019-04-30T12:36:38.853Z,19.00
2019-04-30T12:39:06.267Z,18.10
2019-04-30T12:41:32.489Z,17.30
2019-04-30T12:43:58.785Z,18.20
2019-04-30T12:46:25.025Z,19.10
2019-04-30T12:49:10.254Z,19.30
2019-04-30T12:51:45.587Z,19.50
2019-04-30T12:54:14.808Z,19.40
2019-04-30T12:59:34.514Z,20.90
2019-04-30T13:02:00.888Z,20.40
2019-04-30T13:04:29.215Z,19.70
2019-04-30T13:06:55.651Z,19.10
2019-04-30T13:09:22.718Z,19.40
2019-04-30T13:11:50.780Z,19.70
2019-04-30T13:14:19.818Z,19.80
2019-04-30T13:16:49.034Z,20.70
2019-04-30T13:19:15.302Z,20.60
2019-04-30T13:21:41.854Z,19.10
2019-04-30T13:24:08.367Z,18.30
2019-04-30T13:26:34.663Z,17.90
2019-04-30T13:29:09.170Z,17.70
2019-04-30T13:31:35.696Z,18.00
2019-04-30T13:34:04.274Z,18.00
2019-04-30T13:36:30.533Z,17.90
2019-04-30T13:38:59.504Z,17.80
2019-04-30T13:41:29.749Z,17.90
2019-04-30T13:43:58.757Z,18.10
2019-04-30T13:46:25.319Z,17.90
2019-04-30T13:48:52.148Z,18.10
2019-04-30T13:51:18.944Z,18.20
2019-04-30T13:53:45.188Z,18.10
2019-04-30T13:56:11.547Z,18.10
2019-04-30T13:58:38.109Z,18.20
2019-04-30T14:01:05.618Z,17.90
2019-04-30T14:03:34.046Z,18.00
2019-04-30T14:06:00.470Z,18.00
2019-04-30T14:08:29.093Z,18.30
2019-04-30T14:10:55.753Z,18.20
2019-04-30T14:13:22.481Z,18.00
2019-04-30T14:15:49.079Z,18.10
2019-04-30T14:18:27.972Z,17.70
2019-04-30T14:20:43.955Z,17.40
2019-04-30T14:23:10.838Z,17.30
2019-04-30T14:25:37.221Z,17.40
2019-04-30T14:28:04.290Z,17.50
2019-04-30T14:30:31.109Z,17.70
2019-04-30T14:32:59.314Z,17.80
2019-04-30T14:35:25.825Z,17.70
2019-04-30T14:37:52.489Z,17.90
2019-04-30T14:40:20.357Z,18.00
2019-04-30T14:42:52.125Z,17.90
2019-04-30T14:45:24.419Z,17.90
2019-04-30T14:48:05.837Z,17.20
2019-04-30T14:50:34.512Z,17.10
2019-04-30T14:53:02.893Z,17.00
2019-04-30T14:55:32.587Z,16.90
2019-04-30T14:58:20.274Z,16.80
2019-04-30T15:01:06.212Z,17.00
2019-04-30T15:03:34.505Z,17.30
2019-04-30T15:06:00.958Z,17.20
2019-04-30T15:08:29.192Z,17.10
2019-04-30T15:10:55.796Z,17.00
2019-04-30T15:13:22.404Z,16.60
2019-04-30T15:15:49.204Z,16.30
2019-04-30T15:18:16.112Z,16.40
2019-04-30T15:20:42.825Z,16.70
2019-04-30T15:23:19.043Z,17.10
2019-04-30T15:25:42.181Z,17.20
2019-04-30T15:28:09.865Z,17.30
2019-04-30T15:30:36.248Z,17.10
2019-04-30T15:33:09.366Z,17.10
2019-04-30T15:35:35.673Z,16.80
2019-04-30T15:38:02.021Z,16.40
2019-04-30T15:40:28.882Z,16.20
2019-04-30T15:42:57.204Z,16.10
2019-04-30T15:45:23.458Z,16.00
2019-04-30T15:47:49.749Z,16.10
2019-04-30T15:50:16.312Z,16.20
2019-04-30T15:52:42.576Z,16.20
2019-04-30T15:55:12.129Z,16.20
2019-04-30T15:57:59.339Z,16.40
2019-04-30T16:00:29.225Z,16.50
2019-04-30T16:03:00.789Z,16.40
2019-04-30T16:05:31.946Z,16.50
2019-04-30T16:08:00.482Z,16.40
2019-04-30T16:10:45.642Z,16.40
2019-04-30T16:13:14.129Z,16.30
2019-04-30T16:15:40.454Z,16.50
2019-04-30T16:18:06.789Z,16.50
2019-04-30T16:20:33.409Z,16.60
2019-04-30T16:23:00.270Z,16.60
2019-04-30T16:25:26.664Z,16.30
2019-04-30T16:27:52.876Z,16.20
2019-04-30T16:30:19.667Z,16.00
2019-04-30T16:32:46.236Z,15.90
2019-04-30T16:35:12.944Z,16.00
2019-04-30T16:37:39.429Z,16.10
2019-04-30T16:40:06.225Z,16.20
2019-04-30T16:42:32.787Z,16.40
2019-04-30T16:45:00.843Z,16.30
2019-04-30T16:47:29.589Z,16.20
2019-04-30T16:49:55.909Z,15.90
2019-04-30T16:52:22.502Z,15.70
2019-04-30T16:54:49.698Z,15.50
2019-04-30T16:57:16.596Z,15.40
2019-04-30T16:59:43.277Z,15.40
2019-04-30T17:02:10.096Z,15.50
2019-04-30T17:04:39.014Z,15.60
2019-04-30T17:07:24.643Z,15.60
2019-04-30T17:09:59.080Z,15.50
2019-04-30T17:12:29.310Z,15.50
2019-04-30T17:14:58.675Z,15.20
2019-04-30T17:17:25.394Z,15.00
2019-04-30T17:19:51.975Z,14.90
2019-04-30T17:22:18.202Z,14.90
2019-04-30T17:24:44.874Z,14.80
2019-04-30T17:27:19.323Z,14.90
2019-04-30T17:29:39.809Z,14.80
2019-04-30T17:32:08.380Z,14.90
2019-04-30T17:34:34.690Z,14.90
2019-04-30T17:37:01.348Z,14.80
2019-04-30T17:39:28.061Z,14.60
2019-04-30T17:41:54.668Z,14.50
2019-04-30T17:44:40.745Z,14.40
2019-04-30T17:47:09.030Z,14.50
2019-04-30T17:49:35.516Z,14.30
2019-04-30T17:52:02.236Z,14.30
2019-04-30T17:54:28.813Z,14.30
2019-04-30T17:56:55.308Z,14.30
2019-04-30T17:59:21.568Z,14.20
2019-04-30T18:01:52.961Z,14.20
2019-04-30T18:04:22.025Z,14.10
2019-04-30T18:06:48.444Z,14.00
2019-04-30T18:09:19.097Z,13.90
2019-04-30T18:11:45.764Z,13.90
2019-04-30T18:14:12.093Z,13.80
2019-04-30T18:16:38.816Z,13.70
2019-04-30T18:19:10.145Z,13.60
2019-04-30T18:21:40.069Z,13.60
2019-04-30T18:24:11.005Z,13.50
2019-04-30T18:26:42.175Z,13.30
2019-04-30T18:29:08.665Z,13.20
2019-04-30T18:31:35.308Z,13.20
2019-04-30T18:34:01.534Z,13.20
2019-04-30T18:36:29.410Z,13.10
2019-04-30T18:38:56.020Z,13.10
2019-04-30T18:41:22.306Z,13.00
2019-04-30T18:43:48.910Z,13.00
2019-04-30T18:46:15.528Z,12.90
2019-04-30T18:48:41.813Z,13.00
2019-04-30T18:51:23.828Z,13.00
2019-04-30T18:53:39.710Z,12.90
2019-04-30T18:56:09.946Z,12.90
2019-04-30T18:58:39.873Z,12.80
2019-04-30T19:01:03.642Z,12.70
2019-04-30T19:03:30.237Z,12.70
2019-04-30T19:05:58.759Z,12.70
2019-04-30T19:08:45.321Z,12.70
2019-04-30T19:11:19.833Z,12.50
2019-04-30T19:13:53.728Z,12.40
2019-04-30T19:16:25.848Z,12.30
2019-04-30T19:18:55.794Z,12.30
2019-04-30T19:21:23.027Z,12.20
2019-04-30T19:23:49.585Z,12.20
2019-04-30T19:26:16.253Z,12.10
2019-04-30T19:28:42.860Z,12.00
2019-04-30T19:31:11.620Z,12.00
2019-04-30T19:33:38.921Z,11.90
2019-04-30T19:36:05.232Z,11.90
2019-04-30T19:38:31.917Z,11.80
2019-04-30T19:40:58.523Z,11.70
2019-04-30T19:43:25.181Z,11.70
2019-04-30T19:45:51.396Z,11.80
2019-04-30T19:48:17.656Z,11.70
2019-04-30T19:50:44.290Z,11.60
2019-04-30T19:53:10.880Z,11.60
2019-04-30T19:55:39.410Z,11.50
2019-04-30T19:58:06.253Z,11.50
2019-04-30T20:00:32.973Z,11.60
2019-04-30T20:02:59.941Z,11.40
2019-04-30T20:05:28.575Z,11.40
2019-04-30T20:07:54.815Z,11.30
2019-04-30T20:10:21.453Z,11.40
2019-04-30T20:12:49.770Z,11.20
2019-04-30T20:15:19.577Z,11.20
2019-04-30T20:17:44.314Z,11.10
2019-04-30T20:20:11.305Z,11.00
2019-04-30T20:22:38.973Z,11.20
2019-04-30T20:25:06.211Z,11.30
2019-04-30T20:27:32.841Z,11.40
2019-04-30T20:29:59.505Z,11.40
2019-04-30T20:32:33.952Z,11.40
2019-04-30T20:34:54.423Z,11.30
2019-04-30T20:37:21.020Z,11.20
2019-04-30T20:39:58.638Z,11.20
2019-04-30T20:42:25.372Z,11.20
2019-04-30T20:44:51.611Z,11.20
2019-04-30T20:47:18.776Z,11.10
2019-04-30T20:49:46.553Z,11.00
2019-04-30T20:52:13.184Z,11.10
2019-04-30T20:54:39.795Z,11.00
2019-04-30T20:57:08.607Z,10.90
2019-04-30T20:59:34.728Z,10.80
2019-04-30T21:02:01.437Z,10.80
2019-04-30T21:04:28.004Z,10.90
2019-04-30T21:06:54.612Z,10.90
2019-04-30T21:09:20.884Z,10.70
2019-04-30T21:12:08.863Z,10.80
2019-04-30T21:14:35.065Z,10.70
2019-04-30T21:17:01.652Z,10.70
2019-04-30T21:19:28.284Z,10.50
2019-04-30T21:21:54.573Z,10.70
2019-04-30T21:24:21.156Z,10.80
2019-04-30T21:26:47.417Z,10.80
2019-04-30T21:29:16.064Z,10.70
2019-04-30T21:31:52.864Z,10.80
2019-04-30T21:34:26.957Z,10.50
2019-04-30T21:36:53.189Z,10.20
2019-04-30T21:39:20.114Z,9.90
2019-04-30T21:41:46.466Z,9.80
2019-04-30T21:44:12.723Z,9.80
2019-04-30T21:46:39.549Z,10.00
2019-04-30T21:49:06.020Z,10.20
2019-04-30T21:51:32.275Z,10.10
2019-04-30T21:53:58.584Z,10.00
2019-04-30T21:56:24.816Z,9.80
2019-04-30T21:58:50.936Z,10.00
2019-04-30T22:01:19.480Z,10.00
2019-04-30T22:03:46.701Z,9.80
2019-04-30T22:06:13.160Z,9.90
2019-04-30T22:08:39.283Z,10.10
2019-04-30T22:11:05.401Z,10.10
2019-04-30T22:13:31.652Z,9.90
2019-04-30T22:15:57.873Z,9.90
2019-04-30T22:18:24.088Z,9.80
2019-04-30T22:20:50.328Z,10.00
2019-04-30T22:23:16.453Z,10.10
2019-04-30T22:25:42.692Z,10.00
2019-04-30T22:28:08.815Z,9.70
2019-04-30T22:30:35.264Z,9.50
2019-04-30T22:33:01.485Z,9.40
2019-04-30T22:35:29.644Z,9.40
2019-04-30T22:37:59.256Z,9.40
2019-04-30T22:40:25.788Z,9.20
2019-04-30T22:42:52.043Z,9.00
2019-04-30T22:45:20.248Z,9.10
2019-04-30T22:47:46.504Z,9.10
2019-04-30T22:50:12.957Z,9.30
2019-04-30T22:52:39.224Z,9.10
2019-04-30T22:55:06.644Z,9.00
2019-04-30T22:57:32.756Z,9.00
2019-04-30T22:59:58.921Z,9.10
2019-04-30T23:02:37.543Z,9.20
2019-04-30T23:05:06.990Z,9.30
2019-04-30T23:07:33.568Z,9.40
2019-04-30T23:09:59.825Z,9.40
2019-04-30T23:12:26.041Z,9.40
2019-04-30T23:14:52.314Z,9.40
2019-04-30T23:17:18.524Z,9.40
2019-04-30T23:19:49.319Z,9.40
2019-04-30T23:22:12.804Z,9.50
2019-04-30T23:24:39.029Z,9.60
2019-04-30T23:27:05.182Z,9.40
2019-04-30T23:29:31.400Z,9.40
2019-04-30T23:31:57.662Z,9.50
2019-04-30T23:34:23.891Z,9.50
2019-04-30T23:36:50.357Z,9.40
2019-04-30T23:39:16.596Z,9.30
2019-04-30T23:41:42.824Z,9.10
2019-04-30T23:44:09.095Z,9.20
2019-04-30T23:46:35.328Z,9.30
2019-04-30T23:49:01.553Z,9.40
2019-04-30T23:51:27.930Z,9.30
2019-04-30T23:53:54.770Z,9.10
2019-04-30T23:56:21.004Z,8.90
2019-04-30T23:58:47.217Z,8.80
